Tropical Cyclones
[Index]
Main Index Home Page Stock Weather Photos Extreme Storms Discussion Storm News and Storm Chasing Reports Tropical Cyclones / Hurricanes / Typhoons Weather Data and Links Wild Fires / Bushfires Weather Observation Techniques Weather Picture Catalogue Tornado Pictures and Reports Stock Video Footage and DVDs for sale
Season 2001-2002 Tropical Cyclone FRANCESCA Track Map
Season 2001-2002 Summaries (Operational Data): [AU] [SIO] [SPAC] [SH]
<<- Previous TC | 2001-2002 Season | Next TC ->>

click for intensity scale information  Lat/long Grid: Show Hide

 Date Labels: Show Hide

Operational Tropical Cyclone Data : JTWC Advisories

Name: FRANCESCA
Number: 0212

30 Jan 2002 18:00 UTC to 12 Feb 2002 12:00 UTC

    date/time    lat    long     hPa   cat  kts
2002-01-30 18   13.0    93.0    1003         25          
2002-01-31 06   12.0    89.4    1003         25          
2002-01-31 12   12.4    89.9    1002         25          
2002-01-31 18   12.7    90.2     999         30          
2002-02-01 00   12.9    89.0     998         30          
2002-02-01 06   13.3    87.5     998         30          
2002-02-01 12   13.5    85.8     997         30          
2002-02-01 18   13.5    85.0     997         30          
2002-02-02 00   13.4    84.4     997         30          
2002-02-02 06   14.2    82.7     997         30          
2002-02-02 12   14.0    81.8     991    1    40          
2002-02-02 18   13.8    80.7     984    2    50          
2002-02-03 00   14.1    80.1     980    2    55          
2002-02-03 06   14.3    79.4     975    2    60          
2002-02-03 12   15.0    78.9     973    2    60          
2002-02-03 18   15.0    78.1     973    2    60          
2002-02-04 00   14.9    77.7     965    3    70          
2002-02-04 06   14.9    77.4     958    3    75          
2002-02-04 12   15.0    77.7     950    3    85          
2002-02-04 18   15.5    77.9     925    4   100          
2002-02-05 00   15.8    78.4     925    4   100          
2002-02-05 06   16.1    78.7     925    4   100          
2002-02-05 12   16.4    79.2     945    3    85          
2002-02-05 18   16.9    79.6     952    3    80          
2002-02-06 00   16.9    79.8     958    3    75          
2002-02-06 06   17.2    80.0     968    3    65          
2002-02-06 12   17.4    80.3     968    3    65          
2002-02-06 18   17.8    80.8     968    3    65          
2002-02-07 00   17.8    81.2     968    3    65          
2002-02-07 06   18.0    82.0     962    3    70          
2002-02-07 12   18.2    82.5     957    3    75          
2002-02-07 18   18.7    83.1     958    3    75          
2002-02-08 00   19.2    83.4     958    3    75          
2002-02-08 06   19.6    83.5     954    3    80          
2002-02-08 12   20.0    84.1     954    3    80          
2002-02-08 18   20.3    84.5     954    3    80          
2002-02-09 00   20.9    84.7     955    3    80          
2002-02-09 06   21.4    84.7     955    3    80          
2002-02-09 12   21.9    84.8     960    3    75          
2002-02-09 18   22.0    84.8     965    3    70          
2002-02-10 00   22.3    84.8     972    2    60          
2002-02-10 06   22.5    84.8     975    2    55          
2002-02-10 12   22.8    85.0     978    2    55          
2002-02-10 18   23.2    85.2     984    2    50          
2002-02-11 00   24.0    85.4     984    2    50          
2002-02-11 06   25.1    85.8     990    1    40          
2002-02-11 12   25.7    86.0     994    1    45          
2002-02-11 18   26.5    86.2     995    1    45          
2002-02-12 00   27.6    86.4     995    1    45          
2002-02-12 06   29.1    86.5     995    1    45          
2002-02-12 12   29.8    87.4     998    1    45          
Winds are 10-min average.

Tropical cyclone tracks developed by Michael Bath using operational warnings and advisories and Google Maps.


[Australian Severe Weather index] [Copyright Notice] [Email Contacts] [Search This Site] [Privacy Policy]
Document: tropical_cyclone_francesca.htm Updated: 28 May 2013